sensor_id;sensor_type;location;lat;lon;timestamp;P1;durP1;ratioP1;P2;durP2;ratioP2
81191;SDS011;70665;47.652;-2.730;2023-07-16T00:00:29;28.33;;;8.32;;
81191;SDS011;70665;47.652;-2.730;2023-07-16T00:05:21;23.02;;;7.20;;
81191;SDS011;70665;47.652;-2.730;2023-07-16T00:07:47;24.80;;;8.07;;
81191;SDS011;70665;47.652;-2.730;2023-07-16T00:12:38;25.92;;;7.35;;
81191;SDS011;70665;47.652;-2.730;2023-07-16T00:17:31;33.05;;;8.32;;
81191;SDS011;70665;47.652;-2.730;2023-07-16T00:19:57;27.17;;;8.25;;
81191;SDS011;70665;47.652;-2.730;2023-07-16T00:24:48;26.45;;;8.30;;
81191;SDS011;70665;47.652;-2.730;2023-07-16T00:27:14;25.67;;;7.57;;
81191;SDS011;70665;47.652;-2.730;2023-07-16T00:29:40;29.20;;;8.93;;
81191;SDS011;70665;47.652;-2.730;2023-07-16T00:34:31;21.30;;;8.00;;
81191;SDS011;70665;47.652;-2.730;2023-07-16T00:39:27;26.75;;;8.95;;
81191;SDS011;70665;47.652;-2.730;2023-07-16T00:41:53;29.33;;;8.45;;
81191;SDS011;70665;47.652;-2.730;2023-07-16T00:46:44;22.88;;;8.57;;
81191;SDS011;70665;47.652;-2.730;2023-07-16T00:49:09;26.45;;;9.93;;
81191;SDS011;70665;47.652;-2.730;2023-07-16T00:54:01;24.48;;;8.32;;
81191;SDS011;70665;47.652;-2.730;2023-07-16T00:58:53;26.15;;;8.88;;
81191;SDS011;70665;47.652;-2.730;2023-07-16T01:01:18;23.98;;;8.57;;
81191;SDS011;70665;47.652;-2.730;2023-07-16T01:06:11;21.02;;;7.90;;
81191;SDS011;70665;47.652;-2.730;2023-07-16T01:08:42;22.67;;;8.73;;
81191;SDS011;70665;47.652;-2.730;2023-07-16T01:11:22;23.65;;;8.30;;
81191;SDS011;70665;47.652;-2.730;2023-07-16T01:13:49;23.33;;;9.15;;
81191;SDS011;70665;47.652;-2.730;2023-07-16T01:16:19;23.13;;;8.32;;
81191;SDS011;70665;47.652;-2.730;2023-07-16T01:18:46;32.03;;;9.93;;
81191;SDS011;70665;47.652;-2.730;2023-07-16T01:31:39;20.50;;;8.85;;
81191;SDS011;70665;47.652;-2.730;2023-07-16T01:34:06;30.02;;;9.10;;
81191;SDS011;70665;47.652;-2.730;2023-07-16T01:36:33;34.80;;;9.52;;
81191;SDS011;70665;47.652;-2.730;2023-07-16T01:39:01;27.33;;;9.25;;
81191;SDS011;70665;47.652;-2.730;2023-07-16T01:41:27;30.48;;;9.23;;
81191;SDS011;70665;47.652;-2.730;2023-07-16T01:46:18;19.75;;;8.15;;
81191;SDS011;70665;47.652;-2.730;2023-07-16T01:48:44;26.33;;;8.88;;
81191;SDS011;70665;47.652;-2.730;2023-07-16T01:53:38;23.73;;;9.30;;
81191;SDS011;70665;47.652;-2.730;2023-07-16T01:56:05;28.80;;;8.93;;
81191;SDS011;70665;47.652;-2.730;2023-07-16T02:00:56;30.52;;;10.05;;
81191;SDS011;70665;47.652;-2.730;2023-07-16T02:03:22;22.13;;;9.48;;
81191;SDS011;70665;47.652;-2.730;2023-07-16T02:08:13;27.00;;;9.52;;
81191;SDS011;70665;47.652;-2.730;2023-07-16T02:10:38;22.42;;;9.45;;
81191;SDS011;70665;47.652;-2.730;2023-07-16T02:15:30;25.20;;;9.73;;
81191;SDS011;70665;47.652;-2.730;2023-07-16T02:20:21;26.35;;;10.65;;
81191;SDS011;70665;47.652;-2.730;2023-07-16T02:22:47;31.15;;;11.00;;
81191;SDS011;70665;47.652;-2.730;2023-07-16T02:27:38;32.20;;;10.00;;
81191;SDS011;70665;47.652;-2.730;2023-07-16T02:32:31;27.70;;;10.13;;
81191;SDS011;70665;47.652;-2.730;2023-07-16T02:37:23;27.92;;;9.48;;
81191;SDS011;70665;47.652;-2.730;2023-07-16T02:39:48;33.70;;;10.05;;
81191;SDS011;70665;47.652;-2.730;2023-07-16T02:44:39;29.40;;;9.85;;
81191;SDS011;70665;47.652;-2.730;2023-07-16T02:47:09;34.55;;;10.38;;
81191;SDS011;70665;47.652;-2.730;2023-07-16T02:49:36;30.52;;;10.00;;
81191;SDS011;70665;47.652;-2.730;2023-07-16T02:52:02;28.58;;;10.43;;
81191;SDS011;70665;47.652;-2.730;2023-07-16T02:56:53;27.48;;;9.57;;
81191;SDS011;70665;47.652;-2.730;2023-07-16T02:59:19;28.70;;;9.68;;
81191;SDS011;70665;47.652;-2.730;2023-07-16T03:04:10;28.38;;;10.02;;
81191;SDS011;70665;47.652;-2.730;2023-07-16T03:09:01;23.27;;;10.02;;
81191;SDS011;70665;47.652;-2.730;2023-07-16T03:13:53;27.85;;;10.10;;
81191;SDS011;70665;47.652;-2.730;2023-07-16T03:18:44;25.35;;;9.73;;
81191;SDS011;70665;47.652;-2.730;2023-07-16T03:21:10;32.38;;;10.38;;
81191;SDS011;70665;47.652;-2.730;2023-07-16T03:26:02;34.10;;;9.60;;
81191;SDS011;70665;47.652;-2.730;2023-07-16T03:28:27;31.10;;;10.35;;
81191;SDS011;70665;47.652;-2.730;2023-07-16T03:33:19;25.33;;;9.02;;
81191;SDS011;70665;47.652;-2.730;2023-07-16T03:35:45;31.50;;;10.25;;
81191;SDS011;70665;47.652;-2.730;2023-07-16T03:38:13;27.30;;;9.48;;
81191;SDS011;70665;47.652;-2.730;2023-07-16T03:40:39;29.88;;;9.65;;
81191;SDS011;70665;47.652;-2.730;2023-07-16T03:43:07;24.77;;;10.73;;
81191;SDS011;70665;47.652;-2.730;2023-07-16T03:47:58;21.98;;;8.50;;
81191;SDS011;70665;47.652;-2.730;2023-07-16T03:52:49;22.85;;;8.73;;
81191;SDS011;70665;47.652;-2.730;2023-07-16T03:57:41;22.48;;;8.73;;
81191;SDS011;70665;47.652;-2.730;2023-07-16T04:00:07;19.45;;;8.20;;
81191;SDS011;70665;47.652;-2.730;2023-07-16T04:02:34;30.45;;;9.98;;
81191;SDS011;70665;47.652;-2.730;2023-07-16T04:07:26;25.35;;;9.40;;
81191;SDS011;70665;47.652;-2.730;2023-07-16T04:12:17;29.83;;;8.60;;
81191;SDS011;70665;47.652;-2.730;2023-07-16T04:17:08;19.83;;;8.20;;
81191;SDS011;70665;47.652;-2.730;2023-07-16T04:22:00;26.33;;;8.00;;
81191;SDS011;70665;47.652;-2.730;2023-07-16T04:24:25;27.02;;;8.38;;
81191;SDS011;70665;47.652;-2.730;2023-07-16T04:26:54;29.38;;;9.43;;
81191;SDS011;70665;47.652;-2.730;2023-07-16T04:31:45;24.45;;;7.82;;
81191;SDS011;70665;47.652;-2.730;2023-07-16T04:36:37;23.55;;;8.05;;
81191;SDS011;70665;47.652;-2.730;2023-07-16T04:39:03;24.33;;;7.88;;
81191;SDS011;70665;47.652;-2.730;2023-07-16T04:43:55;24.20;;;8.38;;
81191;SDS011;70665;47.652;-2.730;2023-07-16T04:48:46;25.20;;;8.48;;
81191;SDS011;70665;47.652;-2.730;2023-07-16T04:53:37;25.30;;;8.30;;
81191;SDS011;70665;47.652;-2.730;2023-07-16T04:58:30;22.83;;;6.88;;
81191;SDS011;70665;47.652;-2.730;2023-07-16T05:03:21;22.55;;;6.85;;
81191;SDS011;70665;47.652;-2.730;2023-07-16T05:08:12;20.70;;;7.22;;
81191;SDS011;70665;47.652;-2.730;2023-07-16T05:10:37;24.10;;;7.80;;
81191;SDS011;70665;47.652;-2.730;2023-07-16T05:15:29;18.38;;;6.65;;
81191;SDS011;70665;47.652;-2.730;2023-07-16T05:17:56;24.40;;;6.80;;
81191;SDS011;70665;47.652;-2.730;2023-07-16T05:20:22;27.23;;;7.35;;
81191;SDS011;70665;47.652;-2.730;2023-07-16T05:25:14;18.98;;;5.97;;
81191;SDS011;70665;47.652;-2.730;2023-07-16T05:27:39;24.77;;;6.78;;
81191;SDS011;70665;47.652;-2.730;2023-07-16T05:32:31;20.95;;;6.72;;
81191;SDS011;70665;47.652;-2.730;2023-07-16T05:37:22;19.80;;;6.07;;
81191;SDS011;70665;47.652;-2.730;2023-07-16T05:39:47;19.08;;;5.70;;
81191;SDS011;70665;47.652;-2.730;2023-07-16T05:42:13;16.10;;;5.40;;
81191;SDS011;70665;47.652;-2.730;2023-07-16T05:44:39;15.20;;;5.55;;
81191;SDS011;70665;47.652;-2.730;2023-07-16T05:47:05;17.63;;;4.97;;
81191;SDS011;70665;47.652;-2.730;2023-07-16T05:49:30;16.05;;;4.88;;
81191;SDS011;70665;47.652;-2.730;2023-07-16T05:54:22;11.75;;;4.03;;
81191;SDS011;70665;47.652;-2.730;2023-07-16T05:56:48;11.82;;;3.90;;
81191;SDS011;70665;47.652;-2.730;2023-07-16T06:01:39;13.35;;;4.30;;
81191;SDS011;70665;47.652;-2.730;2023-07-16T06:04:05;15.13;;;4.60;;
81191;SDS011;70665;47.652;-2.730;2023-07-16T06:08:56;13.43;;;4.00;;
81191;SDS011;70665;47.652;-2.730;2023-07-16T06:11:22;18.17;;;4.75;;
81191;SDS011;70665;47.652;-2.730;2023-07-16T06:13:47;10.45;;;4.20;;
81191;SDS011;70665;47.652;-2.730;2023-07-16T06:16:13;19.88;;;4.60;;
81191;SDS011;70665;47.652;-2.730;2023-07-16T06:18:38;13.10;;;5.03;;
81191;SDS011;70665;47.652;-2.730;2023-07-16T06:21:04;16.60;;;5.25;;
81191;SDS011;70665;47.652;-2.730;2023-07-16T06:23:30;13.60;;;4.60;;
81191;SDS011;70665;47.652;-2.730;2023-07-16T06:25:55;12.95;;;5.32;;
81191;SDS011;70665;47.652;-2.730;2023-07-16T06:28:21;16.48;;;5.53;;
81191;SDS011;70665;47.652;-2.730;2023-07-16T06:30:47;21.33;;;5.78;;
81191;SDS011;70665;47.652;-2.730;2023-07-16T06:33:14;18.42;;;6.22;;
81191;SDS011;70665;47.652;-2.730;2023-07-16T06:35:39;16.73;;;5.55;;
81191;SDS011;70665;47.652;-2.730;2023-07-16T06:38:08;15.98;;;5.53;;
81191;SDS011;70665;47.652;-2.730;2023-07-16T06:40:34;16.27;;;4.97;;
81191;SDS011;70665;47.652;-2.730;2023-07-16T06:42:59;18.58;;;4.43;;
81191;SDS011;70665;47.652;-2.730;2023-07-16T06:45:25;20.13;;;5.47;;
81191;SDS011;70665;47.652;-2.730;2023-07-16T06:47:50;17.75;;;4.78;;
81191;SDS011;70665;47.652;-2.730;2023-07-16T06:50:16;17.65;;;5.03;;
81191;SDS011;70665;47.652;-2.730;2023-07-16T06:52:42;17.15;;;4.72;;
81191;SDS011;70665;47.652;-2.730;2023-07-16T06:55:08;18.35;;;5.43;;
81191;SDS011;70665;47.652;-2.730;2023-07-16T06:57:33;14.25;;;5.68;;
81191;SDS011;70665;47.652;-2.730;2023-07-16T06:59:59;14.48;;;4.82;;
81191;SDS011;70665;47.652;-2.730;2023-07-16T07:02:25;12.18;;;4.38;;
81191;SDS011;70665;47.652;-2.730;2023-07-16T07:04:50;17.05;;;4.68;;
81191;SDS011;70665;47.652;-2.730;2023-07-16T07:07:16;13.63;;;4.28;;
81191;SDS011;70665;47.652;-2.730;2023-07-16T07:09:42;21.35;;;3.50;;
81191;SDS011;70665;47.652;-2.730;2023-07-16T07:12:08;14.77;;;3.63;;
81191;SDS011;70665;47.652;-2.730;2023-07-16T07:14:33;9.30;;;3.78;;
81191;SDS011;70665;47.652;-2.730;2023-07-16T07:16:59;10.25;;;3.22;;
81191;SDS011;70665;47.652;-2.730;2023-07-16T07:19:25;10.90;;;3.60;;
81191;SDS011;70665;47.652;-2.730;2023-07-16T07:21:50;12.00;;;3.20;;
81191;SDS011;70665;47.652;-2.730;2023-07-16T07:24:16;9.73;;;3.10;;
81191;SDS011;70665;47.652;-2.730;2023-07-16T07:26:42;9.43;;;3.25;;
81191;SDS011;70665;47.652;-2.730;2023-07-16T07:29:07;10.02;;;3.38;;
81191;SDS011;70665;47.652;-2.730;2023-07-16T07:31:33;9.75;;;3.50;;
81191;SDS011;70665;47.652;-2.730;2023-07-16T07:33:59;15.95;;;3.63;;
81191;SDS011;70665;47.652;-2.730;2023-07-16T07:36:24;10.98;;;3.00;;
81191;SDS011;70665;47.652;-2.730;2023-07-16T07:38:50;8.68;;;3.20;;
81191;SDS011;70665;47.652;-2.730;2023-07-16T07:41:16;7.47;;;2.90;;
81191;SDS011;70665;47.652;-2.730;2023-07-16T07:43:41;9.25;;;2.80;;
81191;SDS011;70665;47.652;-2.730;2023-07-16T07:46:07;10.88;;;3.10;;
81191;SDS011;70665;47.652;-2.730;2023-07-16T07:48:33;13.18;;;3.33;;
81191;SDS011;70665;47.652;-2.730;2023-07-16T07:50:59;6.45;;;2.33;;
81191;SDS011;70665;47.652;-2.730;2023-07-16T07:53:24;4.25;;;1.90;;
81191;SDS011;70665;47.652;-2.730;2023-07-16T07:55:50;6.03;;;2.13;;
81191;SDS011;70665;47.652;-2.730;2023-07-16T07:58:16;9.23;;;1.90;;
81191;SDS011;70665;47.652;-2.730;2023-07-16T08:00:41;9.43;;;1.88;;
81191;SDS011;70665;47.652;-2.730;2023-07-16T08:03:07;7.95;;;2.22;;
81191;SDS011;70665;47.652;-2.730;2023-07-16T08:05:32;5.80;;;1.95;;
81191;SDS011;70665;47.652;-2.730;2023-07-16T08:07:59;3.97;;;1.63;;
81191;SDS011;70665;47.652;-2.730;2023-07-16T08:10:24;7.60;;;2.15;;
81191;SDS011;70665;47.652;-2.730;2023-07-16T08:12:50;7.10;;;2.10;;
81191;SDS011;70665;47.652;-2.730;2023-07-16T08:15:17;10.00;;;2.30;;
81191;SDS011;70665;47.652;-2.730;2023-07-16T08:17:43;3.30;;;1.42;;
81191;SDS011;70665;47.652;-2.730;2023-07-16T08:20:10;3.60;;;1.42;;
81191;SDS011;70665;47.652;-2.730;2023-07-16T08:22:37;9.75;;;1.75;;
81191;SDS011;70665;47.652;-2.730;2023-07-16T08:25:03;6.22;;;1.70;;
81191;SDS011;70665;47.652;-2.730;2023-07-16T08:27:30;5.85;;;1.60;;
81191;SDS011;70665;47.652;-2.730;2023-07-16T08:29:56;5.97;;;1.70;;
81191;SDS011;70665;47.652;-2.730;2023-07-16T08:32:22;7.30;;;1.70;;
81191;SDS011;70665;47.652;-2.730;2023-07-16T08:34:48;5.93;;;1.40;;
81191;SDS011;70665;47.652;-2.730;2023-07-16T08:37:14;5.18;;;1.25;;
81191;SDS011;70665;47.652;-2.730;2023-07-16T08:39:39;6.35;;;1.80;;
81191;SDS011;70665;47.652;-2.730;2023-07-16T08:42:05;3.97;;;1.17;;
81191;SDS011;70665;47.652;-2.730;2023-07-16T08:44:33;5.68;;;1.40;;
81191;SDS011;70665;47.652;-2.730;2023-07-16T08:47:00;7.00;;;1.15;;
81191;SDS011;70665;47.652;-2.730;2023-07-16T08:49:26;6.68;;;1.40;;
81191;SDS011;70665;47.652;-2.730;2023-07-16T08:51:55;4.75;;;1.75;;
81191;SDS011;70665;47.652;-2.730;2023-07-16T08:54:22;6.10;;;1.50;;
81191;SDS011;70665;47.652;-2.730;2023-07-16T08:56:48;3.90;;;1.27;;
81191;SDS011;70665;47.652;-2.730;2023-07-16T08:59:15;5.18;;;1.40;;
81191;SDS011;70665;47.652;-2.730;2023-07-16T09:01:40;3.67;;;0.68;;
81191;SDS011;70665;47.652;-2.730;2023-07-16T09:04:06;6.95;;;1.40;;
81191;SDS011;70665;47.652;-2.730;2023-07-16T09:06:33;6.80;;;1.55;;
81191;SDS011;70665;47.652;-2.730;2023-07-16T09:08:58;3.40;;;1.23;;
81191;SDS011;70665;47.652;-2.730;2023-07-16T09:11:24;6.20;;;1.42;;
81191;SDS011;70665;47.652;-2.730;2023-07-16T09:13:50;4.38;;;1.08;;
81191;SDS011;70665;47.652;-2.730;2023-07-16T09:16:19;3.63;;;1.20;;
81191;SDS011;70665;47.652;-2.730;2023-07-16T09:18:46;5.43;;;1.52;;
81191;SDS011;70665;47.652;-2.730;2023-07-16T09:21:11;5.53;;;1.17;;
81191;SDS011;70665;47.652;-2.730;2023-07-16T09:23:38;5.95;;;1.42;;
81191;SDS011;70665;47.652;-2.730;2023-07-16T09:26:04;6.15;;;1.40;;
81191;SDS011;70665;47.652;-2.730;2023-07-16T09:28:32;2.58;;;1.08;;
81191;SDS011;70665;47.652;-2.730;2023-07-16T09:31:05;2.17;;;1.00;;
81191;SDS011;70665;47.652;-2.730;2023-07-16T09:33:32;3.83;;;1.50;;
81191;SDS011;70665;47.652;-2.730;2023-07-16T09:35:59;5.72;;;1.08;;
81191;SDS011;70665;47.652;-2.730;2023-07-16T09:38:25;6.13;;;1.33;;
81191;SDS011;70665;47.652;-2.730;2023-07-16T09:40:52;4.07;;;1.38;;
81191;SDS011;70665;47.652;-2.730;2023-07-16T09:43:20;4.05;;;1.15;;
81191;SDS011;70665;47.652;-2.730;2023-07-16T09:45:47;5.78;;;1.70;;
81191;SDS011;70665;47.652;-2.730;2023-07-16T09:48:12;4.53;;;1.33;;
81191;SDS011;70665;47.652;-2.730;2023-07-16T09:50:39;8.13;;;1.45;;
81191;SDS011;70665;47.652;-2.730;2023-07-16T09:53:11;4.78;;;1.50;;
81191;SDS011;70665;47.652;-2.730;2023-07-16T09:55:37;5.13;;;1.50;;
81191;SDS011;70665;47.652;-2.730;2023-07-16T09:58:06;5.35;;;2.20;;
81191;SDS011;70665;47.652;-2.730;2023-07-16T10:00:34;3.80;;;1.65;;
81191;SDS011;70665;47.652;-2.730;2023-07-16T10:03:01;6.30;;;1.70;;
81191;SDS011;70665;47.652;-2.730;2023-07-16T10:05:27;4.93;;;1.58;;
81191;SDS011;70665;47.652;-2.730;2023-07-16T10:07:57;6.35;;;1.90;;
81191;SDS011;70665;47.652;-2.730;2023-07-16T10:10:38;6.50;;;1.80;;
81191;SDS011;70665;47.652;-2.730;2023-07-16T10:13:04;7.00;;;1.83;;
81191;SDS011;70665;47.652;-2.730;2023-07-16T10:15:31;7.35;;;1.98;;
81191;SDS011;70665;47.652;-2.730;2023-07-16T10:17:57;6.65;;;2.00;;
81191;SDS011;70665;47.652;-2.730;2023-07-16T10:20:35;12.57;;;2.58;;
81191;SDS011;70665;47.652;-2.730;2023-07-16T10:23:13;9.80;;;2.55;;
81191;SDS011;70665;47.652;-2.730;2023-07-16T10:25:41;9.52;;;1.98;;
81191;SDS011;70665;47.652;-2.730;2023-07-16T10:28:23;9.85;;;2.28;;
81191;SDS011;70665;47.652;-2.730;2023-07-16T10:30:49;5.72;;;1.95;;
81191;SDS011;70665;47.652;-2.730;2023-07-16T10:33:15;8.77;;;1.60;;
81191;SDS011;70665;47.652;-2.730;2023-07-16T10:35:41;6.45;;;1.88;;
81191;SDS011;70665;47.652;-2.730;2023-07-16T10:38:07;7.38;;;1.48;;
81191;SDS011;70665;47.652;-2.730;2023-07-16T10:40:33;7.72;;;1.80;;
81191;SDS011;70665;47.652;-2.730;2023-07-16T10:43:04;7.18;;;1.60;;
81191;SDS011;70665;47.652;-2.730;2023-07-16T10:45:31;9.63;;;2.42;;
81191;SDS011;70665;47.652;-2.730;2023-07-16T10:47:57;6.63;;;2.50;;
81191;SDS011;70665;47.652;-2.730;2023-07-16T10:50:22;7.03;;;1.90;;
81191;SDS011;70665;47.652;-2.730;2023-07-16T10:52:52;5.45;;;1.60;;
81191;SDS011;70665;47.652;-2.730;2023-07-16T10:55:21;5.47;;;2.08;;
81191;SDS011;70665;47.652;-2.730;2023-07-16T10:57:47;8.90;;;1.90;;
81191;SDS011;70665;47.652;-2.730;2023-07-16T11:00:14;8.45;;;2.13;;
81191;SDS011;70665;47.652;-2.730;2023-07-16T11:02:41;5.80;;;1.98;;
81191;SDS011;70665;47.652;-2.730;2023-07-16T11:05:11;11.25;;;2.50;;
81191;SDS011;70665;47.652;-2.730;2023-07-16T11:07:37;10.60;;;2.67;;
81191;SDS011;70665;47.652;-2.730;2023-07-16T11:10:03;9.07;;;2.60;;
81191;SDS011;70665;47.652;-2.730;2023-07-16T11:12:29;8.50;;;2.70;;
81191;SDS011;70665;47.652;-2.730;2023-07-16T11:14:55;10.85;;;2.63;;
81191;SDS011;70665;47.652;-2.730;2023-07-16T11:17:22;6.30;;;3.03;;
81191;SDS011;70665;47.652;-2.730;2023-07-16T11:19:50;6.68;;;2.75;;
81191;SDS011;70665;47.652;-2.730;2023-07-16T11:22:18;8.02;;;3.75;;
81191;SDS011;70665;47.652;-2.730;2023-07-16T11:24:44;9.65;;;3.40;;
81191;SDS011;70665;47.652;-2.730;2023-07-16T11:27:20;12.45;;;3.80;;
81191;SDS011;70665;47.652;-2.730;2023-07-16T11:29:55;9.68;;;3.63;;
81191;SDS011;70665;47.652;-2.730;2023-07-16T11:32:29;6.95;;;3.55;;
81191;SDS011;70665;47.652;-2.730;2023-07-16T11:37:26;10.30;;;3.60;;
81191;SDS011;70665;47.652;-2.730;2023-07-16T11:40:03;9.98;;;3.70;;
81191;SDS011;70665;47.652;-2.730;2023-07-16T11:42:31;9.75;;;3.80;;
81191;SDS011;70665;47.652;-2.730;2023-07-16T11:44:57;15.25;;;4.47;;
81191;SDS011;70665;47.652;-2.730;2023-07-16T11:47:24;8.18;;;4.05;;
81191;SDS011;70665;47.652;-2.730;2023-07-16T11:49:50;13.27;;;5.55;;
81191;SDS011;70665;47.652;-2.730;2023-07-16T11:52:19;9.55;;;5.00;;
81191;SDS011;70665;47.652;-2.730;2023-07-16T11:54:46;13.63;;;5.15;;
81191;SDS011;70665;47.652;-2.730;2023-07-16T11:57:12;11.80;;;4.88;;
81191;SDS011;70665;47.652;-2.730;2023-07-16T11:59:38;14.15;;;5.38;;
81191;SDS011;70665;47.652;-2.730;2023-07-16T12:02:03;13.68;;;5.57;;
81191;SDS011;70665;47.652;-2.730;2023-07-16T12:04:29;14.90;;;5.05;;
81191;SDS011;70665;47.652;-2.730;2023-07-16T12:06:55;13.68;;;4.90;;
81191;SDS011;70665;47.652;-2.730;2023-07-16T12:09:20;13.07;;;4.90;;
81191;SDS011;70665;47.652;-2.730;2023-07-16T12:11:46;12.35;;;5.35;;
81191;SDS011;70665;47.652;-2.730;2023-07-16T12:14:12;11.48;;;4.50;;
81191;SDS011;70665;47.652;-2.730;2023-07-16T12:16:38;10.90;;;5.75;;
81191;SDS011;70665;47.652;-2.730;2023-07-16T12:19:05;12.07;;;4.68;;
81191;SDS011;70665;47.652;-2.730;2023-07-16T12:21:32;10.85;;;5.03;;
81191;SDS011;70665;47.652;-2.730;2023-07-16T12:23:57;10.13;;;4.50;;
81191;SDS011;70665;47.652;-2.730;2023-07-16T12:26:23;13.55;;;5.43;;
81191;SDS011;70665;47.652;-2.730;2023-07-16T12:28:49;12.90;;;5.43;;
81191;SDS011;70665;47.652;-2.730;2023-07-16T12:31:14;13.95;;;4.78;;
81191;SDS011;70665;47.652;-2.730;2023-07-16T12:33:41;10.95;;;4.70;;
81191;SDS011;70665;47.652;-2.730;2023-07-16T12:36:07;12.82;;;5.22;;
81191;SDS011;70665;47.652;-2.730;2023-07-16T12:38:33;8.90;;;4.60;;
81191;SDS011;70665;47.652;-2.730;2023-07-16T12:40:58;14.27;;;5.22;;
81191;SDS011;70665;47.652;-2.730;2023-07-16T12:43:24;11.23;;;5.53;;
81191;SDS011;70665;47.652;-2.730;2023-07-16T12:45:50;13.95;;;5.80;;
81191;SDS011;70665;47.652;-2.730;2023-07-16T12:48:15;12.88;;;5.75;;
81191;SDS011;70665;47.652;-2.730;2023-07-16T12:50:41;11.75;;;5.47;;
81191;SDS011;70665;47.652;-2.730;2023-07-16T12:53:07;11.63;;;5.28;;
81191;SDS011;70665;47.652;-2.730;2023-07-16T12:55:32;17.90;;;5.80;;
81191;SDS011;70665;47.652;-2.730;2023-07-16T12:57:59;12.07;;;4.95;;
81191;SDS011;70665;47.652;-2.730;2023-07-16T13:00:24;11.25;;;5.60;;
81191;SDS011;70665;47.652;-2.730;2023-07-16T13:02:50;17.23;;;5.47;;
81191;SDS011;70665;47.652;-2.730;2023-07-16T13:05:16;15.63;;;5.78;;
81191;SDS011;70665;47.652;-2.730;2023-07-16T13:07:41;12.93;;;6.03;;
81191;SDS011;70665;47.652;-2.730;2023-07-16T13:10:07;11.77;;;5.30;;
81191;SDS011;70665;47.652;-2.730;2023-07-16T13:12:34;12.90;;;5.00;;
81191;SDS011;70665;47.652;-2.730;2023-07-16T13:14:59;11.95;;;5.97;;
81191;SDS011;70665;47.652;-2.730;2023-07-16T13:17:25;13.88;;;4.70;;
81191;SDS011;70665;47.652;-2.730;2023-07-16T13:19:51;14.40;;;5.30;;
81191;SDS011;70665;47.652;-2.730;2023-07-16T13:22:16;17.85;;;5.05;;
81191;SDS011;70665;47.652;-2.730;2023-07-16T13:24:42;13.70;;;4.70;;
81191;SDS011;70665;47.652;-2.730;2023-07-16T13:27:09;13.27;;;5.15;;
81191;SDS011;70665;47.652;-2.730;2023-07-16T13:29:35;15.60;;;5.07;;
81191;SDS011;70665;47.652;-2.730;2023-07-16T13:32:01;14.02;;;5.20;;
81191;SDS011;70665;47.652;-2.730;2023-07-16T13:34:27;12.88;;;4.50;;
81191;SDS011;70665;47.652;-2.730;2023-07-16T13:36:53;10.02;;;4.13;;
81191;SDS011;70665;47.652;-2.730;2023-07-16T13:39:19;12.73;;;4.47;;
81191;SDS011;70665;47.652;-2.730;2023-07-16T13:41:44;13.55;;;4.35;;
81191;SDS011;70665;47.652;-2.730;2023-07-16T13:44:10;14.13;;;4.70;;
81191;SDS011;70665;47.652;-2.730;2023-07-16T13:46:35;13.93;;;4.20;;
81191;SDS011;70665;47.652;-2.730;2023-07-16T13:49:02;11.05;;;3.80;;
81191;SDS011;70665;47.652;-2.730;2023-07-16T13:51:28;13.40;;;4.72;;
81191;SDS011;70665;47.652;-2.730;2023-07-16T13:53:53;9.65;;;3.60;;
81191;SDS011;70665;47.652;-2.730;2023-07-16T13:56:19;11.05;;;3.58;;
81191;SDS011;70665;47.652;-2.730;2023-07-16T13:58:44;11.32;;;3.35;;
81191;SDS011;70665;47.652;-2.730;2023-07-16T14:01:10;9.68;;;3.00;;
81191;SDS011;70665;47.652;-2.730;2023-07-16T14:03:36;7.97;;;3.30;;
81191;SDS011;70665;47.652;-2.730;2023-07-16T14:06:01;10.23;;;3.70;;
81191;SDS011;70665;47.652;-2.730;2023-07-16T14:08:28;13.45;;;4.15;;
81191;SDS011;70665;47.652;-2.730;2023-07-16T14:10:53;13.70;;;3.40;;
81191;SDS011;70665;47.652;-2.730;2023-07-16T14:13:19;12.98;;;4.30;;
81191;SDS011;70665;47.652;-2.730;2023-07-16T14:15:44;9.43;;;4.03;;
81191;SDS011;70665;47.652;-2.730;2023-07-16T14:18:10;12.40;;;4.15;;
81191;SDS011;70665;47.652;-2.730;2023-07-16T14:20:36;14.18;;;3.60;;
81191;SDS011;70665;47.652;-2.730;2023-07-16T14:23:02;10.93;;;3.53;;
81191;SDS011;70665;47.652;-2.730;2023-07-16T14:25:28;10.40;;;3.60;;
81191;SDS011;70665;47.652;-2.730;2023-07-16T14:27:54;7.15;;;2.85;;
81191;SDS011;70665;47.652;-2.730;2023-07-16T14:30:19;9.95;;;2.95;;
81191;SDS011;70665;47.652;-2.730;2023-07-16T14:32:45;8.07;;;3.00;;
81191;SDS011;70665;47.652;-2.730;2023-07-16T14:35:10;9.75;;;3.30;;
81191;SDS011;70665;47.652;-2.730;2023-07-16T14:37:36;9.32;;;3.40;;
81191;SDS011;70665;47.652;-2.730;2023-07-16T14:40:02;12.10;;;3.72;;
81191;SDS011;70665;47.652;-2.730;2023-07-16T14:42:33;13.15;;;3.80;;
81191;SDS011;70665;47.652;-2.730;2023-07-16T14:44:58;9.85;;;3.25;;
81191;SDS011;70665;47.652;-2.730;2023-07-16T14:47:24;9.65;;;3.40;;
81191;SDS011;70665;47.652;-2.730;2023-07-16T14:49:50;12.32;;;3.10;;
81191;SDS011;70665;47.652;-2.730;2023-07-16T14:52:15;10.27;;;3.50;;
81191;SDS011;70665;47.652;-2.730;2023-07-16T14:54:41;9.68;;;3.25;;
81191;SDS011;70665;47.652;-2.730;2023-07-16T14:57:06;13.05;;;2.95;;
81191;SDS011;70665;47.652;-2.730;2023-07-16T14:59:32;8.90;;;2.60;;
81191;SDS011;70665;47.652;-2.730;2023-07-16T15:01:59;9.82;;;3.05;;
81191;SDS011;70665;47.652;-2.730;2023-07-16T15:04:25;9.73;;;3.15;;
81191;SDS011;70665;47.652;-2.730;2023-07-16T15:06:50;9.68;;;2.95;;
81191;SDS011;70665;47.652;-2.730;2023-07-16T15:09:16;7.88;;;2.80;;
81191;SDS011;70665;47.652;-2.730;2023-07-16T15:11:42;9.18;;;2.50;;
81191;SDS011;70665;47.652;-2.730;2023-07-16T15:14:07;8.90;;;2.55;;
81191;SDS011;70665;47.652;-2.730;2023-07-16T15:16:33;9.73;;;2.72;;
81191;SDS011;70665;47.652;-2.730;2023-07-16T15:18:59;15.43;;;2.42;;
81191;SDS011;70665;47.652;-2.730;2023-07-16T15:21:25;11.23;;;2.55;;
81191;SDS011;70665;47.652;-2.730;2023-07-16T15:23:50;8.60;;;2.47;;
81191;SDS011;70665;47.652;-2.730;2023-07-16T15:26:16;6.75;;;1.60;;
81191;SDS011;70665;47.652;-2.730;2023-07-16T15:28:42;6.53;;;1.85;;
81191;SDS011;70665;47.652;-2.730;2023-07-16T15:31:08;10.23;;;1.98;;
81191;SDS011;70665;47.652;-2.730;2023-07-16T15:33:34;9.02;;;1.92;;
81191;SDS011;70665;47.652;-2.730;2023-07-16T15:36:00;5.18;;;1.42;;
81191;SDS011;70665;47.652;-2.730;2023-07-16T15:38:25;6.78;;;1.77;;
81191;SDS011;70665;47.652;-2.730;2023-07-16T15:40:54;4.40;;;1.27;;
81191;SDS011;70665;47.652;-2.730;2023-07-16T15:43:20;8.48;;;2.03;;
81191;SDS011;70665;47.652;-2.730;2023-07-16T15:45:46;7.88;;;1.70;;
81191;SDS011;70665;47.652;-2.730;2023-07-16T15:48:12;7.57;;;1.65;;
81191;SDS011;70665;47.652;-2.730;2023-07-16T15:50:38;4.45;;;1.30;;
81191;SDS011;70665;47.652;-2.730;2023-07-16T15:53:04;5.35;;;1.60;;
81191;SDS011;70665;47.652;-2.730;2023-07-16T15:55:30;6.47;;;1.77;;
81191;SDS011;70665;47.652;-2.730;2023-07-16T15:57:56;6.53;;;1.60;;
81191;SDS011;70665;47.652;-2.730;2023-07-16T16:00:22;8.00;;;1.73;;
81191;SDS011;70665;47.652;-2.730;2023-07-16T16:02:49;5.80;;;1.58;;
81191;SDS011;70665;47.652;-2.730;2023-07-16T16:05:16;8.45;;;1.55;;
81191;SDS011;70665;47.652;-2.730;2023-07-16T16:08:09;6.00;;;1.20;;
81191;SDS011;70665;47.652;-2.730;2023-07-16T16:10:43;7.00;;;1.35;;
81191;SDS011;70665;47.652;-2.730;2023-07-16T16:13:16;8.10;;;2.17;;
81191;SDS011;70665;47.652;-2.730;2023-07-16T16:15:46;4.72;;;1.27;;
81191;SDS011;70665;47.652;-2.730;2023-07-16T16:18:12;7.78;;;1.85;;
81191;SDS011;70665;47.652;-2.730;2023-07-16T16:20:39;3.63;;;1.20;;
81191;SDS011;70665;47.652;-2.730;2023-07-16T16:23:06;5.50;;;1.40;;
81191;SDS011;70665;47.652;-2.730;2023-07-16T16:25:32;2.85;;;1.20;;
81191;SDS011;70665;47.652;-2.730;2023-07-16T16:28:00;6.70;;;1.60;;
81191;SDS011;70665;47.652;-2.730;2023-07-16T16:30:27;5.32;;;1.05;;
81191;SDS011;70665;47.652;-2.730;2023-07-16T16:32:54;4.97;;;1.15;;